sensor_id;sensor_type;location;lat;lon;timestamp;P1;durP1;ratioP1;P2;durP2;ratioP2
70444;SDS011;57902;49.638;11.070;2022-07-29T00:02:24;4.00;;;1.50;;
70444;SDS011;57902;49.638;11.070;2022-07-29T00:04:51;8.52;;;1.60;;
70444;SDS011;57902;49.638;11.070;2022-07-29T00:07:18;6.32;;;1.67;;
70444;SDS011;57902;49.638;11.070;2022-07-29T00:09:44;4.20;;;1.40;;
70444;SDS011;57902;49.638;11.070;2022-07-29T00:12:18;3.83;;;1.40;;
70444;SDS011;57902;49.638;11.070;2022-07-29T00:14:51;6.20;;;1.58;;
70444;SDS011;57902;49.638;11.070;2022-07-29T00:17:21;3.88;;;1.42;;
70444;SDS011;57902;49.638;11.070;2022-07-29T00:19:57;6.70;;;1.80;;
70444;SDS011;57902;49.638;11.070;2022-07-29T00:22:23;5.05;;;1.80;;
70444;SDS011;57902;49.638;11.070;2022-07-29T00:24:50;4.15;;;1.60;;
70444;SDS011;57902;49.638;11.070;2022-07-29T00:27:17;4.55;;;1.70;;
70444;SDS011;57902;49.638;11.070;2022-07-29T00:29:44;6.63;;;1.80;;
70444;SDS011;57902;49.638;11.070;2022-07-29T00:32:10;4.93;;;1.60;;
70444;SDS011;57902;49.638;11.070;2022-07-29T00:34:37;8.02;;;1.77;;
70444;SDS011;57902;49.638;11.070;2022-07-29T00:37:22;5.82;;;1.77;;
70444;SDS011;57902;49.638;11.070;2022-07-29T00:39:49;5.60;;;1.58;;
70444;SDS011;57902;49.638;11.070;2022-07-29T00:42:16;4.90;;;1.35;;
70444;SDS011;57902;49.638;11.070;2022-07-29T00:44:43;8.05;;;1.80;;
70444;SDS011;57902;49.638;11.070;2022-07-29T00:47:10;4.55;;;1.50;;
70444;SDS011;57902;49.638;11.070;2022-07-29T00:49:38;7.15;;;1.48;;
70444;SDS011;57902;49.638;11.070;2022-07-29T00:52:06;6.32;;;1.70;;
70444;SDS011;57902;49.638;11.070;2022-07-29T00:54:34;5.15;;;1.40;;
70444;SDS011;57902;49.638;11.070;2022-07-29T00:57:09;4.40;;;1.40;;
70444;SDS011;57902;49.638;11.070;2022-07-29T00:59:36;3.65;;;1.60;;
70444;SDS011;57902;49.638;11.070;2022-07-29T01:02:04;5.07;;;1.70;;
70444;SDS011;57902;49.638;11.070;2022-07-29T01:04:31;8.23;;;1.88;;
70444;SDS011;57902;49.638;11.070;2022-07-29T01:06:58;1.85;;;1.20;;
70444;SDS011;57902;49.638;11.070;2022-07-29T01:09:27;4.50;;;1.50;;
70444;SDS011;57902;49.638;11.070;2022-07-29T01:12:12;4.97;;;1.50;;
70444;SDS011;57902;49.638;11.070;2022-07-29T01:14:42;3.42;;;1.50;;
70444;SDS011;57902;49.638;11.070;2022-07-29T01:17:14;6.40;;;1.80;;
70444;SDS011;57902;49.638;11.070;2022-07-29T01:33:28;4.15;;;1.75;;
70444;SDS011;57902;49.638;11.070;2022-07-29T01:36:30;3.88;;;1.58;;
70444;SDS011;57902;49.638;11.070;2022-07-29T01:39:02;7.60;;;1.92;;
70444;SDS011;57902;49.638;11.070;2022-07-29T01:41:34;3.25;;;1.55;;
70444;SDS011;57902;49.638;11.070;2022-07-29T01:44:16;5.70;;;1.60;;
70444;SDS011;57902;49.638;11.070;2022-07-29T01:46:49;4.35;;;1.55;;
70444;SDS011;57902;49.638;11.070;2022-07-29T01:49:21;5.93;;;1.80;;
70444;SDS011;57902;49.638;11.070;2022-07-29T01:51:54;5.50;;;1.60;;
70444;SDS011;57902;49.638;11.070;2022-07-29T01:54:30;5.95;;;1.52;;
70444;SDS011;57902;49.638;11.070;2022-07-29T01:57:01;4.63;;;1.50;;
70444;SDS011;57902;49.638;11.070;2022-07-29T01:59:33;5.55;;;1.55;;
70444;SDS011;57902;49.638;11.070;2022-07-29T02:02:01;3.97;;;1.50;;
70444;SDS011;57902;49.638;11.070;2022-07-29T02:04:28;5.20;;;1.70;;
70444;SDS011;57902;49.638;11.070;2022-07-29T02:07:00;5.55;;;2.00;;
70444;SDS011;57902;49.638;11.070;2022-07-29T02:09:30;5.60;;;1.70;;
70444;SDS011;57902;49.638;11.070;2022-07-29T02:11:59;6.45;;;1.85;;
70444;SDS011;57902;49.638;11.070;2022-07-29T02:14:28;10.70;;;1.80;;
70444;SDS011;57902;49.638;11.070;2022-07-29T02:16:59;6.82;;;2.00;;
70444;SDS011;57902;49.638;11.070;2022-07-29T02:19:27;6.57;;;1.70;;
70444;SDS011;57902;49.638;11.070;2022-07-29T02:21:57;9.25;;;1.88;;
70444;SDS011;57902;49.638;11.070;2022-07-29T02:24:26;6.85;;;1.90;;
70444;SDS011;57902;49.638;11.070;2022-07-29T02:26:55;5.30;;;1.55;;
70444;SDS011;57902;49.638;11.070;2022-07-29T02:29:24;4.35;;;1.55;;
70444;SDS011;57902;49.638;11.070;2022-07-29T02:31:54;6.90;;;1.67;;
70444;SDS011;57902;49.638;11.070;2022-07-29T02:34:24;5.68;;;2.00;;
70444;SDS011;57902;49.638;11.070;2022-07-29T02:36:52;9.73;;;1.80;;
70444;SDS011;57902;49.638;11.070;2022-07-29T02:39:21;8.85;;;1.80;;
70444;SDS011;57902;49.638;11.070;2022-07-29T02:44:23;8.02;;;2.20;;
70444;SDS011;57902;49.638;11.070;2022-07-29T02:47:07;5.40;;;1.90;;
70444;SDS011;57902;49.638;11.070;2022-07-29T02:58:03;5.70;;;1.80;;
70444;SDS011;57902;49.638;11.070;2022-07-29T03:00:40;8.38;;;1.55;;
70444;SDS011;57902;49.638;11.070;2022-07-29T03:03:09;5.00;;;1.75;;
70444;SDS011;57902;49.638;11.070;2022-07-29T03:05:39;6.75;;;1.80;;
70444;SDS011;57902;49.638;11.070;2022-07-29T03:08:07;4.53;;;1.83;;
70444;SDS011;57902;49.638;11.070;2022-07-29T03:10:37;4.13;;;1.60;;
70444;SDS011;57902;49.638;11.070;2022-07-29T03:13:06;7.82;;;1.80;;
70444;SDS011;57902;49.638;11.070;2022-07-29T03:15:33;8.00;;;2.10;;
70444;SDS011;57902;49.638;11.070;2022-07-29T03:18:02;8.13;;;2.10;;
70444;SDS011;57902;49.638;11.070;2022-07-29T03:20:28;13.18;;;2.20;;
70444;SDS011;57902;49.638;11.070;2022-07-29T03:22:55;9.73;;;2.10;;
70444;SDS011;57902;49.638;11.070;2022-07-29T03:25:22;9.93;;;2.10;;
70444;SDS011;57902;49.638;11.070;2022-07-29T03:27:49;5.15;;;1.73;;
70444;SDS011;57902;49.638;11.070;2022-07-29T03:30:16;6.80;;;1.75;;
70444;SDS011;57902;49.638;11.070;2022-07-29T03:32:47;5.40;;;1.92;;
70444;SDS011;57902;49.638;11.070;2022-07-29T03:35:14;4.78;;;1.65;;
70444;SDS011;57902;49.638;11.070;2022-07-29T03:37:43;9.10;;;1.75;;
70444;SDS011;57902;49.638;11.070;2022-07-29T03:40:10;6.50;;;1.75;;
70444;SDS011;57902;49.638;11.070;2022-07-29T03:42:40;13.77;;;2.00;;
70444;SDS011;57902;49.638;11.070;2022-07-29T03:45:10;5.38;;;1.63;;
70444;SDS011;57902;49.638;11.070;2022-07-29T03:47:42;8.50;;;1.73;;
70444;SDS011;57902;49.638;11.070;2022-07-29T03:50:17;3.75;;;1.50;;
70444;SDS011;57902;49.638;11.070;2022-07-29T03:52:46;5.50;;;1.73;;
70444;SDS011;57902;49.638;11.070;2022-07-29T03:55:15;24.98;;;3.10;;
70444;SDS011;57902;49.638;11.070;2022-07-29T03:57:43;9.30;;;2.10;;
70444;SDS011;57902;49.638;11.070;2022-07-29T04:00:11;5.78;;;2.00;;
70444;SDS011;57902;49.638;11.070;2022-07-29T04:02:38;7.07;;;2.45;;
70444;SDS011;57902;49.638;11.070;2022-07-29T04:05:05;11.23;;;2.10;;
70444;SDS011;57902;49.638;11.070;2022-07-29T04:07:38;13.10;;;2.40;;
70444;SDS011;57902;49.638;11.070;2022-07-29T04:10:05;13.80;;;2.90;;
70444;SDS011;57902;49.638;11.070;2022-07-29T04:12:35;9.27;;;1.90;;
70444;SDS011;57902;49.638;11.070;2022-07-29T04:15:05;15.90;;;2.35;;
70444;SDS011;57902;49.638;11.070;2022-07-29T04:17:32;9.38;;;2.05;;
70444;SDS011;57902;49.638;11.070;2022-07-29T04:19:58;30.05;;;3.08;;
70444;SDS011;57902;49.638;11.070;2022-07-29T04:22:25;6.70;;;2.00;;
70444;SDS011;57902;49.638;11.070;2022-07-29T04:24:52;9.52;;;1.95;;
70444;SDS011;57902;49.638;11.070;2022-07-29T04:27:19;50.15;;;3.60;;
70444;SDS011;57902;49.638;11.070;2022-07-29T04:29:46;10.25;;;1.80;;
70444;SDS011;57902;49.638;11.070;2022-07-29T04:32:22;6.97;;;2.08;;
70444;SDS011;57902;49.638;11.070;2022-07-29T04:34:49;7.47;;;2.10;;
70444;SDS011;57902;49.638;11.070;2022-07-29T04:37:16;4.90;;;2.08;;
70444;SDS011;57902;49.638;11.070;2022-07-29T04:39:43;9.52;;;2.22;;
70444;SDS011;57902;49.638;11.070;2022-07-29T04:42:10;9.18;;;2.00;;
70444;SDS011;57902;49.638;11.070;2022-07-29T04:44:38;14.25;;;2.50;;
70444;SDS011;57902;49.638;11.070;2022-07-29T04:47:08;8.20;;;2.08;;
70444;SDS011;57902;49.638;11.070;2022-07-29T04:49:37;10.00;;;2.35;;
70444;SDS011;57902;49.638;11.070;2022-07-29T04:52:04;13.52;;;2.67;;
70444;SDS011;57902;49.638;11.070;2022-07-29T04:56:59;8.40;;;1.77;;
70444;SDS011;57902;49.638;11.070;2022-07-29T04:59:26;13.13;;;2.30;;
70444;SDS011;57902;49.638;11.070;2022-07-29T05:01:53;10.60;;;1.95;;
70444;SDS011;57902;49.638;11.070;2022-07-29T05:04:19;7.43;;;1.73;;
70444;SDS011;57902;49.638;11.070;2022-07-29T05:06:46;5.10;;;1.50;;
70444;SDS011;57902;49.638;11.070;2022-07-29T05:09:13;7.28;;;1.85;;
70444;SDS011;57902;49.638;11.070;2022-07-29T05:11:39;9.35;;;2.13;;
70444;SDS011;57902;49.638;11.070;2022-07-29T05:14:06;16.33;;;2.47;;
70444;SDS011;57902;49.638;11.070;2022-07-29T05:16:32;9.55;;;2.47;;
70444;SDS011;57902;49.638;11.070;2022-07-29T05:18:59;20.92;;;2.70;;
70444;SDS011;57902;49.638;11.070;2022-07-29T05:21:26;10.68;;;1.88;;
70444;SDS011;57902;49.638;11.070;2022-07-29T05:23:52;9.00;;;1.80;;
70444;SDS011;57902;49.638;11.070;2022-07-29T05:26:19;9.05;;;2.00;;
70444;SDS011;57902;49.638;11.070;2022-07-29T05:28:45;6.88;;;1.88;;
70444;SDS011;57902;49.638;11.070;2022-07-29T05:31:12;10.90;;;2.47;;
70444;SDS011;57902;49.638;11.070;2022-07-29T05:33:41;5.82;;;2.00;;
70444;SDS011;57902;49.638;11.070;2022-07-29T05:36:07;11.95;;;2.42;;
70444;SDS011;57902;49.638;11.070;2022-07-29T05:38:34;6.32;;;1.83;;
70444;SDS011;57902;49.638;11.070;2022-07-29T05:41:01;10.30;;;2.28;;
70444;SDS011;57902;49.638;11.070;2022-07-29T05:43:28;8.88;;;2.05;;
70444;SDS011;57902;49.638;11.070;2022-07-29T05:45:55;14.98;;;2.40;;
70444;SDS011;57902;49.638;11.070;2022-07-29T05:50:49;6.85;;;1.85;;
70444;SDS011;57902;49.638;11.070;2022-07-29T05:53:15;16.75;;;2.45;;
70444;SDS011;57902;49.638;11.070;2022-07-29T05:55:45;11.18;;;1.60;;
70444;SDS011;57902;49.638;11.070;2022-07-29T05:58:11;7.03;;;1.40;;
70444;SDS011;57902;49.638;11.070;2022-07-29T06:00:38;9.43;;;1.90;;
70444;SDS011;57902;49.638;11.070;2022-07-29T06:03:05;6.35;;;1.50;;
70444;SDS011;57902;49.638;11.070;2022-07-29T06:05:31;8.63;;;1.60;;
70444;SDS011;57902;49.638;11.070;2022-07-29T06:07:58;7.40;;;1.80;;
70444;SDS011;57902;49.638;11.070;2022-07-29T06:10:27;6.35;;;1.60;;
70444;SDS011;57902;49.638;11.070;2022-07-29T06:12:54;7.55;;;1.90;;
70444;SDS011;57902;49.638;11.070;2022-07-29T06:15:20;5.97;;;1.65;;
70444;SDS011;57902;49.638;11.070;2022-07-29T06:17:47;7.40;;;1.90;;
70444;SDS011;57902;49.638;11.070;2022-07-29T06:20:26;6.47;;;1.50;;
70444;SDS011;57902;49.638;11.070;2022-07-29T06:22:57;14.10;;;2.03;;
70444;SDS011;57902;49.638;11.070;2022-07-29T06:25:24;7.28;;;2.05;;
70444;SDS011;57902;49.638;11.070;2022-07-29T06:27:50;9.50;;;1.60;;
70444;SDS011;57902;49.638;11.070;2022-07-29T06:30:17;5.78;;;1.75;;
70444;SDS011;57902;49.638;11.070;2022-07-29T06:32:43;5.15;;;1.70;;
70444;SDS011;57902;49.638;11.070;2022-07-29T06:35:10;6.00;;;1.67;;
70444;SDS011;57902;49.638;11.070;2022-07-29T06:37:56;4.32;;;1.67;;
70444;SDS011;57902;49.638;11.070;2022-07-29T06:40:25;6.50;;;1.58;;
70444;SDS011;57902;49.638;11.070;2022-07-29T06:43:10;13.15;;;1.90;;
70444;SDS011;57902;49.638;11.070;2022-07-29T06:45:37;11.25;;;1.85;;
70444;SDS011;57902;49.638;11.070;2022-07-29T06:48:07;4.60;;;1.55;;
70444;SDS011;57902;49.638;11.070;2022-07-29T06:50:34;7.25;;;1.60;;
70444;SDS011;57902;49.638;11.070;2022-07-29T06:53:01;7.30;;;1.60;;
70444;SDS011;57902;49.638;11.070;2022-07-29T06:55:27;8.35;;;1.73;;
70444;SDS011;57902;49.638;11.070;2022-07-29T06:57:54;5.88;;;1.73;;
70444;SDS011;57902;49.638;11.070;2022-07-29T07:00:20;9.32;;;2.00;;
70444;SDS011;57902;49.638;11.070;2022-07-29T07:02:47;3.97;;;1.40;;
70444;SDS011;57902;49.638;11.070;2022-07-29T07:05:14;7.80;;;1.70;;
70444;SDS011;57902;49.638;11.070;2022-07-29T07:07:40;14.30;;;2.25;;
70444;SDS011;57902;49.638;11.070;2022-07-29T07:10:07;4.70;;;1.65;;
70444;SDS011;57902;49.638;11.070;2022-07-29T07:22:19;74.60;;;5.88;;
70444;SDS011;57902;49.638;11.070;2022-07-29T07:24:46;26.48;;;3.28;;
70444;SDS011;57902;49.638;11.070;2022-07-29T07:27:12;8.85;;;1.95;;
70444;SDS011;57902;49.638;11.070;2022-07-29T07:29:39;6.47;;;1.65;;
70444;SDS011;57902;49.638;11.070;2022-07-29T07:32:09;7.60;;;2.03;;
70444;SDS011;57902;49.638;11.070;2022-07-29T07:34:36;6.32;;;2.00;;
70444;SDS011;57902;49.638;11.070;2022-07-29T07:37:04;8.77;;;1.80;;
70444;SDS011;57902;49.638;11.070;2022-07-29T07:39:31;4.07;;;1.80;;
70444;SDS011;57902;49.638;11.070;2022-07-29T07:41:58;6.55;;;1.85;;
70444;SDS011;57902;49.638;11.070;2022-07-29T07:44:25;5.68;;;1.80;;
70444;SDS011;57902;49.638;11.070;2022-07-29T07:46:51;7.25;;;2.22;;
70444;SDS011;57902;49.638;11.070;2022-07-29T07:49:19;5.32;;;1.67;;
70444;SDS011;57902;49.638;11.070;2022-07-29T07:51:46;13.48;;;2.28;;
70444;SDS011;57902;49.638;11.070;2022-07-29T07:54:16;6.55;;;2.00;;
70444;SDS011;57902;49.638;11.070;2022-07-29T07:56:43;6.93;;;1.88;;
70444;SDS011;57902;49.638;11.070;2022-07-29T07:59:10;8.60;;;2.20;;
70444;SDS011;57902;49.638;11.070;2022-07-29T08:01:36;6.68;;;1.85;;
70444;SDS011;57902;49.638;11.070;2022-07-29T08:04:21;8.02;;;2.53;;
70444;SDS011;57902;49.638;11.070;2022-07-29T08:06:54;29.90;;;3.55;;
70444;SDS011;57902;49.638;11.070;2022-07-29T08:09:22;33.75;;;3.17;;
70444;SDS011;57902;49.638;11.070;2022-07-29T08:11:55;8.85;;;2.00;;
70444;SDS011;57902;49.638;11.070;2022-07-29T08:14:23;4.50;;;1.92;;
70444;SDS011;57902;49.638;11.070;2022-07-29T08:16:50;5.97;;;1.95;;
70444;SDS011;57902;49.638;11.070;2022-07-29T08:19:18;5.13;;;2.08;;
70444;SDS011;57902;49.638;11.070;2022-07-29T08:21:45;6.38;;;2.10;;
70444;SDS011;57902;49.638;11.070;2022-07-29T08:24:12;4.63;;;1.92;;
70444;SDS011;57902;49.638;11.070;2022-07-29T08:26:57;7.60;;;1.90;;
70444;SDS011;57902;49.638;11.070;2022-07-29T08:29:23;7.88;;;2.22;;
70444;SDS011;57902;49.638;11.070;2022-07-29T08:31:50;7.32;;;2.10;;
70444;SDS011;57902;49.638;11.070;2022-07-29T08:34:17;8.52;;;2.20;;
70444;SDS011;57902;49.638;11.070;2022-07-29T08:36:50;15.35;;;2.97;;
70444;SDS011;57902;49.638;11.070;2022-07-29T08:39:17;17.00;;;2.58;;
70444;SDS011;57902;49.638;11.070;2022-07-29T08:41:44;10.10;;;2.58;;
70444;SDS011;57902;49.638;11.070;2022-07-29T08:44:22;7.57;;;2.40;;
70444;SDS011;57902;49.638;11.070;2022-07-29T08:51:49;10.88;;;2.28;;
70444;SDS011;57902;49.638;11.070;2022-07-29T08:54:17;12.57;;;2.45;;
70444;SDS011;57902;49.638;11.070;2022-07-29T08:59:14;11.23;;;2.38;;
70444;SDS011;57902;49.638;11.070;2022-07-29T09:01:41;6.32;;;2.28;;
70444;SDS011;57902;49.638;11.070;2022-07-29T09:04:11;4.75;;;2.10;;
70444;SDS011;57902;49.638;11.070;2022-07-29T09:06:39;8.82;;;2.30;;
70444;SDS011;57902;49.638;11.070;2022-07-29T09:09:09;5.70;;;2.08;;
70444;SDS011;57902;49.638;11.070;2022-07-29T09:11:36;7.03;;;2.13;;
70444;SDS011;57902;49.638;11.070;2022-07-29T09:14:03;6.43;;;2.03;;
70444;SDS011;57902;49.638;11.070;2022-07-29T09:16:49;5.93;;;2.30;;
70444;SDS011;57902;49.638;11.070;2022-07-29T09:19:21;5.65;;;2.30;;
70444;SDS011;57902;49.638;11.070;2022-07-29T09:21:53;9.90;;;2.42;;
70444;SDS011;57902;49.638;11.070;2022-07-29T09:27:10;5.18;;;2.28;;
70444;SDS011;57902;49.638;11.070;2022-07-29T09:29:59;5.47;;;2.22;;
70444;SDS011;57902;49.638;11.070;2022-07-29T09:32:27;6.63;;;2.25;;
70444;SDS011;57902;49.638;11.070;2022-07-29T09:37:40;6.97;;;2.70;;
70444;SDS011;57902;49.638;11.070;2022-07-29T09:40:49;9.73;;;2.78;;
70444;SDS011;57902;49.638;11.070;2022-07-29T09:42:56;9.32;;;3.20;;
70444;SDS011;57902;49.638;11.070;2022-07-29T09:47:54;11.15;;;2.60;;
70444;SDS011;57902;49.638;11.070;2022-07-29T09:50:34;5.90;;;2.50;;
70444;SDS011;57902;49.638;11.070;2022-07-29T09:53:01;5.95;;;2.50;;
70444;SDS011;57902;49.638;11.070;2022-07-29T09:55:28;7.85;;;2.80;;
70444;SDS011;57902;49.638;11.070;2022-07-29T09:57:54;9.15;;;2.88;;
70444;SDS011;57902;49.638;11.070;2022-07-29T10:00:42;8.10;;;2.70;;
70444;SDS011;57902;49.638;11.070;2022-07-29T10:03:09;8.15;;;2.92;;
70444;SDS011;57902;49.638;11.070;2022-07-29T10:05:38;7.13;;;2.60;;
70444;SDS011;57902;49.638;11.070;2022-07-29T10:08:05;9.15;;;3.10;;
70444;SDS011;57902;49.638;11.070;2022-07-29T10:10:33;11.15;;;3.50;;
70444;SDS011;57902;49.638;11.070;2022-07-29T10:13:02;7.97;;;3.20;;
70444;SDS011;57902;49.638;11.070;2022-07-29T10:15:36;5.18;;;3.10;;
70444;SDS011;57902;49.638;11.070;2022-07-29T10:18:07;7.15;;;2.97;;
70444;SDS011;57902;49.638;11.070;2022-07-29T10:20:35;5.95;;;2.78;;
70444;SDS011;57902;49.638;11.070;2022-07-29T10:23:02;9.98;;;3.35;;
70444;SDS011;57902;49.638;11.070;2022-07-29T10:25:29;13.93;;;3.30;;
70444;SDS011;57902;49.638;11.070;2022-07-29T10:27:56;9.48;;;3.20;;
70444;SDS011;57902;49.638;11.070;2022-07-29T10:30:24;16.88;;;3.78;;
70444;SDS011;57902;49.638;11.070;2022-07-29T10:33:16;18.95;;;3.60;;
70444;SDS011;57902;49.638;11.070;2022-07-29T10:36:14;7.32;;;2.95;;
70444;SDS011;57902;49.638;11.070;2022-07-29T10:44:59;6.93;;;2.88;;
70444;SDS011;57902;49.638;11.070;2022-07-29T10:47:26;17.10;;;3.80;;
70444;SDS011;57902;49.638;11.070;2022-07-29T10:49:57;8.60;;;3.47;;
70444;SDS011;57902;49.638;11.070;2022-07-29T11:00:43;16.33;;;3.72;;
70444;SDS011;57902;49.638;11.070;2022-07-29T11:06:15;9.70;;;3.90;;
70444;SDS011;57902;49.638;11.070;2022-07-29T11:08:43;20.95;;;3.47;;
70444;SDS011;57902;49.638;11.070;2022-07-29T11:11:30;8.00;;;3.03;;
70444;SDS011;57902;49.638;11.070;2022-07-29T11:13:57;9.50;;;3.13;;
70444;SDS011;57902;49.638;11.070;2022-07-29T11:16:24;6.97;;;3.38;;
70444;SDS011;57902;49.638;11.070;2022-07-29T11:21:39;8.75;;;3.80;;
70444;SDS011;57902;49.638;11.070;2022-07-29T11:24:28;26.08;;;4.22;;
70444;SDS011;57902;49.638;11.070;2022-07-29T11:34:49;6.90;;;3.50;;
70444;SDS011;57902;49.638;11.070;2022-07-29T11:43:54;13.35;;;4.05;;
70444;SDS011;57902;49.638;11.070;2022-07-29T11:49:12;7.90;;;3.35;;
70444;SDS011;57902;49.638;11.070;2022-07-29T11:51:40;8.75;;;3.38;;
70444;SDS011;57902;49.638;11.070;2022-07-29T11:54:13;6.70;;;3.78;;
70444;SDS011;57902;49.638;11.070;2022-07-29T11:56:52;6.60;;;3.42;;
70444;SDS011;57902;49.638;11.070;2022-07-29T11:59:20;8.23;;;3.47;;
70444;SDS011;57902;49.638;11.070;2022-07-29T12:01:59;7.15;;;3.38;;
70444;SDS011;57902;49.638;11.070;2022-07-29T12:04:52;8.13;;;3.22;;
70444;SDS011;57902;49.638;11.070;2022-07-29T12:07:28;6.95;;;3.55;;
70444;SDS011;57902;49.638;11.070;2022-07-29T12:10:01;6.50;;;3.30;;
70444;SDS011;57902;49.638;11.070;2022-07-29T12:14:54;6.97;;;3.00;;
70444;SDS011;57902;49.638;11.070;2022-07-29T12:20:02;13.68;;;4.13;;
70444;SDS011;57902;49.638;11.070;2022-07-29T12:22:34;9.88;;;3.47;;
70444;SDS011;57902;49.638;11.070;2022-07-29T12:25:09;7.88;;;3.20;;
70444;SDS011;57902;49.638;11.070;2022-07-29T12:28:01;7.97;;;3.40;;
70444;SDS011;57902;49.638;11.070;2022-07-29T12:30:36;7.95;;;3.10;;
70444;SDS011;57902;49.638;11.070;2022-07-29T12:33:25;8.10;;;2.70;;
70444;SDS011;57902;49.638;11.070;2022-07-29T12:36:00;9.35;;;3.15;;
70444;SDS011;57902;49.638;11.070;2022-07-29T12:38:36;9.68;;;3.20;;
70444;SDS011;57902;49.638;11.070;2022-07-29T12:41:06;11.43;;;3.30;;
70444;SDS011;57902;49.638;11.070;2022-07-29T12:43:33;8.82;;;3.60;;
70444;SDS011;57902;49.638;11.070;2022-07-29T12:46:10;9.60;;;3.42;;
70444;SDS011;57902;49.638;11.070;2022-07-29T12:48:39;8.32;;;3.08;;
70444;SDS011;57902;49.638;11.070;2022-07-29T12:51:07;9.02;;;3.40;;
70444;SDS011;57902;49.638;11.070;2022-07-29T12:53:36;8.10;;;3.20;;
70444;SDS011;57902;49.638;11.070;2022-07-29T12:56:03;6.70;;;2.95;;
70444;SDS011;57902;49.638;11.070;2022-07-29T12:58:50;6.82;;;2.92;;
70444;SDS011;57902;49.638;11.070;2022-07-29T13:01:18;7.95;;;2.92;;
70444;SDS011;57902;49.638;11.070;2022-07-29T13:03:56;7.25;;;3.22;;
70444;SDS011;57902;49.638;11.070;2022-07-29T13:11:41;5.93;;;3.00;;
70444;SDS011;57902;49.638;11.070;2022-07-29T13:14:29;8.25;;;3.08;;
70444;SDS011;57902;49.638;11.070;2022-07-29T13:22:11;7.28;;;2.70;;
70444;SDS011;57902;49.638;11.070;2022-07-29T13:24:55;4.85;;;2.25;;
70444;SDS011;57902;49.638;11.070;2022-07-29T13:27:24;10.50;;;2.72;;
70444;SDS011;57902;49.638;11.070;2022-07-29T13:29:52;12.23;;;2.70;;
70444;SDS011;57902;49.638;11.070;2022-07-29T13:32:22;8.45;;;2.80;;
70444;SDS011;57902;49.638;11.070;2022-07-29T13:34:58;11.15;;;2.95;;
70444;SDS011;57902;49.638;11.070;2022-07-29T13:37:30;7.95;;;2.95;;
70444;SDS011;57902;49.638;11.070;2022-07-29T13:39:58;7.85;;;2.80;;
70444;SDS011;57902;49.638;11.070;2022-07-29T13:42:25;7.53;;;2.80;;
70444;SDS011;57902;49.638;11.070;2022-07-29T13:44:52;11.32;;;3.05;;
70444;SDS011;57902;49.638;11.070;2022-07-29T13:47:19;6.65;;;2.83;;
70444;SDS011;57902;49.638;11.070;2022-07-29T13:49:46;8.10;;;2.90;;
70444;SDS011;57902;49.638;11.070;2022-07-29T13:52:13;6.15;;;2.90;;
70444;SDS011;57902;49.638;11.070;2022-07-29T13:54:41;7.13;;;2.95;;
70444;SDS011;57902;49.638;11.070;2022-07-29T13:57:09;6.55;;;2.88;;
70444;SDS011;57902;49.638;11.070;2022-07-29T13:59:37;5.97;;;2.78;;
70444;SDS011;57902;49.638;11.070;2022-07-29T14:02:08;9.23;;;2.67;;
70444;SDS011;57902;49.638;11.070;2022-07-29T14:04:36;5.90;;;2.50;;
70444;SDS011;57902;49.638;11.070;2022-07-29T14:07:04;5.05;;;2.55;;
70444;SDS011;57902;49.638;11.070;2022-07-29T14:09:32;4.82;;;2.80;;
70444;SDS011;57902;49.638;11.070;2022-07-29T14:12:07;9.20;;;2.65;;
70444;SDS011;57902;49.638;11.070;2022-07-29T14:14:34;9.05;;;2.47;;
70444;SDS011;57902;49.638;11.070;2022-07-29T14:17:02;6.65;;;2.40;;
70444;SDS011;57902;49.638;11.070;2022-07-29T14:19:29;14.27;;;3.00;;
70444;SDS011;57902;49.638;11.070;2022-07-29T14:21:58;7.05;;;2.30;;
70444;SDS011;57902;49.638;11.070;2022-07-29T14:24:25;16.40;;;3.55;;
70444;SDS011;57902;49.638;11.070;2022-07-29T14:26:52;18.33;;;4.18;;
70444;SDS011;57902;49.638;11.070;2022-07-29T14:29:18;11.55;;;3.67;;
70444;SDS011;57902;49.638;11.070;2022-07-29T14:31:45;10.68;;;3.53;;
70444;SDS011;57902;49.638;11.070;2022-07-29T14:34:12;9.20;;;3.80;;
70444;SDS011;57902;49.638;11.070;2022-07-29T14:36:41;14.10;;;4.20;;
70444;SDS011;57902;49.638;11.070;2022-07-29T14:39:08;10.30;;;3.78;;
70444;SDS011;57902;49.638;11.070;2022-07-29T14:41:34;9.63;;;3.67;;
70444;SDS011;57902;49.638;11.070;2022-07-29T14:44:01;8.65;;;3.63;;
70444;SDS011;57902;49.638;11.070;2022-07-29T14:46:28;14.30;;;4.10;;
70444;SDS011;57902;49.638;11.070;2022-07-29T14:48:55;15.55;;;4.63;;
70444;SDS011;57902;49.638;11.070;2022-07-29T14:51:21;13.60;;;4.93;;
70444;SDS011;57902;49.638;11.070;2022-07-29T14:53:48;8.80;;;3.88;;
70444;SDS011;57902;49.638;11.070;2022-07-29T14:56:14;10.10;;;4.07;;
70444;SDS011;57902;49.638;11.070;2022-07-29T14:59:01;13.35;;;4.82;;
70444;SDS011;57902;49.638;11.070;2022-07-29T15:01:27;15.15;;;5.10;;
70444;SDS011;57902;49.638;11.070;2022-07-29T15:03:54;13.25;;;4.43;;
70444;SDS011;57902;49.638;11.070;2022-07-29T15:06:25;12.40;;;4.93;;
70444;SDS011;57902;49.638;11.070;2022-07-29T15:08:52;11.27;;;4.82;;
70444;SDS011;57902;49.638;11.070;2022-07-29T15:11:18;13.15;;;4.15;;
70444;SDS011;57902;49.638;11.070;2022-07-29T15:13:45;11.65;;;5.13;;
70444;SDS011;57902;49.638;11.070;2022-07-29T15:16:11;10.70;;;4.82;;
70444;SDS011;57902;49.638;11.070;2022-07-29T15:18:38;47.92;;;7.15;;
70444;SDS011;57902;49.638;11.070;2022-07-29T15:21:04;31.05;;;5.70;;
70444;SDS011;57902;49.638;11.070;2022-07-29T15:23:33;20.55;;;5.30;;
70444;SDS011;57902;49.638;11.070;2022-07-29T15:26:02;10.90;;;5.05;;
70444;SDS011;57902;49.638;11.070;2022-07-29T15:28:30;13.23;;;5.80;;
70444;SDS011;57902;49.638;11.070;2022-07-29T15:30:56;7.97;;;3.90;;
70444;SDS011;57902;49.638;11.070;2022-07-29T15:33:23;9.20;;;3.78;;
70444;SDS011;57902;49.638;11.070;2022-07-29T15:35:49;16.98;;;4.70;;
70444;SDS011;57902;49.638;11.070;2022-07-29T15:38:16;11.75;;;4.30;;
70444;SDS011;57902;49.638;11.070;2022-07-29T15:40:43;10.50;;;3.88;;
70444;SDS011;57902;49.638;11.070;2022-07-29T15:43:10;14.15;;;4.57;;
70444;SDS011;57902;49.638;11.070;2022-07-29T15:48:06;7.90;;;3.42;;
70444;SDS011;57902;49.638;11.070;2022-07-29T15:50:34;11.70;;;3.72;;
70444;SDS011;57902;49.638;11.070;2022-07-29T15:53:01;9.02;;;3.72;;
70444;SDS011;57902;49.638;11.070;2022-07-29T15:55:27;11.50;;;4.75;;
70444;SDS011;57902;49.638;11.070;2022-07-29T15:57:54;10.73;;;4.28;;
70444;SDS011;57902;49.638;11.070;2022-07-29T16:00:25;14.80;;;4.53;;
70444;SDS011;57902;49.638;11.070;2022-07-29T16:02:52;9.45;;;5.40;;
70444;SDS011;57902;49.638;11.070;2022-07-29T16:05:18;8.77;;;4.00;;
70444;SDS011;57902;49.638;11.070;2022-07-29T16:07:45;17.27;;;4.57;;
70444;SDS011;57902;49.638;11.070;2022-07-29T16:10:11;17.33;;;4.82;;
70444;SDS011;57902;49.638;11.070;2022-07-29T16:12:38;9.35;;;4.05;;
70444;SDS011;57902;49.638;11.070;2022-07-29T16:15:05;8.95;;;3.85;;
70444;SDS011;57902;49.638;11.070;2022-07-29T16:17:35;9.52;;;3.55;;
70444;SDS011;57902;49.638;11.070;2022-07-29T16:20:03;10.25;;;4.20;;
70444;SDS011;57902;49.638;11.070;2022-07-29T16:22:31;7.70;;;3.83;;
70444;SDS011;57902;49.638;11.070;2022-07-29T16:24:57;11.82;;;4.30;;
70444;SDS011;57902;49.638;11.070;2022-07-29T16:27:24;8.02;;;3.90;;
70444;SDS011;57902;49.638;11.070;2022-07-29T16:30:03;11.32;;;4.57;;
70444;SDS011;57902;49.638;11.070;2022-07-29T16:32:30;10.40;;;4.20;;
70444;SDS011;57902;49.638;11.070;2022-07-29T16:34:56;11.23;;;3.88;;
70444;SDS011;57902;49.638;11.070;2022-07-29T16:37:23;9.18;;;4.32;;